sensor_id;sensor_type;location;lat;lon;timestamp;pressure;altitude;pressure_sealevel;temperature;humidity
9474;BME280;8865;47.636;7.692;2023-01-28T00:02:11;98680.00;;;1.55;100.00
9474;BME280;8865;47.636;7.692;2023-01-28T00:04:38;98682.50;;;1.57;100.00
9474;BME280;8865;47.636;7.692;2023-01-28T00:07:05;98676.34;;;1.59;100.00
9474;BME280;8865;47.636;7.692;2023-01-28T00:09:31;98672.94;;;1.59;100.00
9474;BME280;8865;47.636;7.692;2023-01-28T00:11:56;98666.75;;;1.63;100.00
9474;BME280;8865;47.636;7.692;2023-01-28T00:14:23;98675.41;;;1.62;100.00
9474;BME280;8865;47.636;7.692;2023-01-28T00:16:49;98676.22;;;1.63;100.00
9474;BME280;8865;47.636;7.692;2023-01-28T00:19:15;98679.66;;;1.63;100.00
9474;BME280;8865;47.636;7.692;2023-01-28T00:21:41;98681.53;;;1.59;100.00
9474;BME280;8865;47.636;7.692;2023-01-28T00:24:07;98679.06;;;1.56;100.00
9474;BME280;8865;47.636;7.692;2023-01-28T00:26:34;98680.94;;;1.53;100.00
9474;BME280;8865;47.636;7.692;2023-01-28T00:29:01;98681.91;;;1.50;100.00
9474;BME280;8865;47.636;7.692;2023-01-28T00:31:27;98687.00;;;1.52;100.00
9474;BME280;8865;47.636;7.692;2023-01-28T00:33:54;98679.41;;;1.49;100.00
9474;BME280;8865;47.636;7.692;2023-01-28T00:36:22;98684.63;;;1.47;100.00
9474;BME280;8865;47.636;7.692;2023-01-28T00:38:50;98670.00;;;1.48;100.00
9474;BME280;8865;47.636;7.692;2023-01-28T00:41:17;98667.41;;;1.48;100.00
9474;BME280;8865;47.636;7.692;2023-01-28T00:43:47;98672.72;;;1.45;100.00
9474;BME280;8865;47.636;7.692;2023-01-28T00:46:13;98668.31;;;1.47;100.00
9474;BME280;8865;47.636;7.692;2023-01-28T00:48:40;98672.56;;;1.48;100.00
9474;BME280;8865;47.636;7.692;2023-01-28T00:51:09;98664.97;;;1.45;100.00
9474;BME280;8865;47.636;7.692;2023-01-28T00:53:36;98667.53;;;1.45;100.00
9474;BME280;8865;47.636;7.692;2023-01-28T00:56:04;98676.19;;;1.43;100.00
9474;BME280;8865;47.636;7.692;2023-01-28T00:58:31;98663.28;;;1.43;100.00
9474;BME280;8865;47.636;7.692;2023-01-28T01:01:06;98666.63;;;1.46;100.00
9474;BME280;8865;47.636;7.692;2023-01-28T01:03:33;98661.53;;;1.44;100.00
9474;BME280;8865;47.636;7.692;2023-01-28T01:05:59;98669.41;;;1.41;100.00
9474;BME280;8865;47.636;7.692;2023-01-28T01:08:25;98675.41;;;1.41;100.00
9474;BME280;8865;47.636;7.692;2023-01-28T01:11:02;98677.22;;;1.39;100.00
9474;BME280;8865;47.636;7.692;2023-01-28T01:13:30;98680.72;;;1.38;100.00
9474;BME280;8865;47.636;7.692;2023-01-28T01:16:01;98683.34;;;1.37;100.00
9474;BME280;8865;47.636;7.692;2023-01-28T01:18:28;98687.66;;;1.36;100.00
9474;BME280;8865;47.636;7.692;2023-01-28T01:20:54;98677.34;;;1.36;100.00
9474;BME280;8865;47.636;7.692;2023-01-28T01:23:28;98686.75;;;1.37;100.00
9474;BME280;8865;47.636;7.692;2023-01-28T01:25:54;98687.66;;;1.36;100.00
9474;BME280;8865;47.636;7.692;2023-01-28T01:28:21;98689.28;;;1.39;100.00
9474;BME280;8865;47.636;7.692;2023-01-28T01:30:48;98681.47;;;1.40;100.00
9474;BME280;8865;47.636;7.692;2023-01-28T01:33:14;98678.84;;;1.42;100.00
9474;BME280;8865;47.636;7.692;2023-01-28T01:35:40;98675.34;;;1.43;100.00
9474;BME280;8865;47.636;7.692;2023-01-28T01:38:07;98684.19;;;1.37;100.00
9474;BME280;8865;47.636;7.692;2023-01-28T01:40:33;98670.63;;;1.32;100.00
9474;BME280;8865;47.636;7.692;2023-01-28T01:42:59;98669.66;;;1.35;100.00
9474;BME280;8865;47.636;7.692;2023-01-28T01:45:27;98661.84;;;1.36;100.00
9474;BME280;8865;47.636;7.692;2023-01-28T01:48:12;98667.06;;;1.35;100.00
9474;BME280;8865;47.636;7.692;2023-01-28T01:51:05;98665.75;;;1.26;100.00
9474;BME280;8865;47.636;7.692;2023-01-28T01:53:38;98668.25;;;1.28;100.00
9474;BME280;8865;47.636;7.692;2023-01-28T01:56:08;98669.84;;;1.30;100.00
9474;BME280;8865;47.636;7.692;2023-01-28T01:58:38;98672.22;;;1.35;100.00
9474;BME280;8865;47.636;7.692;2023-01-28T02:01:07;98672.84;;;1.41;100.00
9474;BME280;8865;47.636;7.692;2023-01-28T02:06:07;98665.13;;;1.19;100.00
9474;BME280;8865;47.636;7.692;2023-01-28T02:08:33;98672.16;;;1.16;100.00
9474;BME280;8865;47.636;7.692;2023-01-28T02:11:06;98673.22;;;1.32;100.00
9474;BME280;8865;47.636;7.692;2023-01-28T02:13:42;98662.50;;;1.41;100.00
9474;BME280;8865;47.636;7.692;2023-01-28T02:16:10;98672.38;;;1.32;100.00
9474;BME280;8865;47.636;7.692;2023-01-28T02:18:37;98671.09;;;1.42;100.00
9474;BME280;8865;47.636;7.692;2023-01-28T02:21:45;98678.00;;;1.41;100.00
9474;BME280;8865;47.636;7.692;2023-01-28T02:30:09;98682.16;;;1.44;100.00
9474;BME280;8865;47.636;7.692;2023-01-28T02:32:43;98684.69;;;1.46;100.00
9474;BME280;8865;47.636;7.692;2023-01-28T02:36:04;98685.47;;;1.48;100.00
9474;BME280;8865;47.636;7.692;2023-01-28T02:38:36;98685.69;;;1.43;100.00
9474;BME280;8865;47.636;7.692;2023-01-28T02:41:12;98684.75;;;1.44;100.00
9474;BME280;8865;47.636;7.692;2023-01-28T02:43:43;98683.94;;;1.43;100.00
9474;BME280;8865;47.636;7.692;2023-01-28T02:46:33;98689.84;;;1.46;100.00
9474;BME280;8865;47.636;7.692;2023-01-28T02:52:11;98688.06;;;1.48;100.00
9474;BME280;8865;47.636;7.692;2023-01-28T03:00:16;98684.50;;;1.50;100.00
9474;BME280;8865;47.636;7.692;2023-01-28T03:02:49;98677.69;;;1.49;100.00
9474;BME280;8865;47.636;7.692;2023-01-28T03:05:37;98687.16;;;1.49;100.00
9474;BME280;8865;47.636;7.692;2023-01-28T03:08:05;98683.88;;;1.45;100.00
9474;BME280;8865;47.636;7.692;2023-01-28T03:10:55;98688.19;;;1.45;100.00
9474;BME280;8865;47.636;7.692;2023-01-28T03:13:41;98682.16;;;1.44;100.00
9474;BME280;8865;47.636;7.692;2023-01-28T03:16:29;98684.00;;;1.42;100.00
9474;BME280;8865;47.636;7.692;2023-01-28T03:19:16;98685.63;;;1.45;100.00
9474;BME280;8865;47.636;7.692;2023-01-28T03:22:02;98687.22;;;1.47;100.00
9474;BME280;8865;47.636;7.692;2023-01-28T03:24:50;98689.72;;;1.49;100.00
9474;BME280;8865;47.636;7.692;2023-01-28T03:27:41;98692.25;;;1.50;100.00
9474;BME280;8865;47.636;7.692;2023-01-28T03:31:09;98692.09;;;1.53;100.00
9474;BME280;8865;47.636;7.692;2023-01-28T03:33:56;98681.78;;;1.53;100.00
9474;BME280;8865;47.636;7.692;2023-01-28T03:36:43;98693.88;;;1.53;100.00
9474;BME280;8865;47.636;7.692;2023-01-28T03:39:15;98695.56;;;1.54;100.00
9474;BME280;8865;47.636;7.692;2023-01-28T03:41:42;98695.41;;;1.57;100.00
9474;BME280;8865;47.636;7.692;2023-01-28T03:44:08;98699.78;;;1.55;100.00
9474;BME280;8865;47.636;7.692;2023-01-28T03:46:52;98704.81;;;1.58;100.00
9474;BME280;8865;47.636;7.692;2023-01-28T03:49:18;98704.00;;;1.57;100.00
9474;BME280;8865;47.636;7.692;2023-01-28T03:51:44;98697.88;;;1.60;100.00
9474;BME280;8865;47.636;7.692;2023-01-28T03:54:11;98700.53;;;1.58;100.00
9474;BME280;8865;47.636;7.692;2023-01-28T03:56:37;98698.69;;;1.60;100.00
9474;BME280;8865;47.636;7.692;2023-01-28T03:59:05;98707.34;;;1.59;100.00
9474;BME280;8865;47.636;7.692;2023-01-28T04:01:31;98708.19;;;1.60;100.00
9474;BME280;8865;47.636;7.692;2023-01-28T04:03:57;98711.69;;;1.59;100.00
9474;BME280;8865;47.636;7.692;2023-01-28T04:06:23;98708.97;;;1.62;100.00
9474;BME280;8865;47.636;7.692;2023-01-28T04:08:50;98708.97;;;1.62;100.00
9474;BME280;8865;47.636;7.692;2023-01-28T04:11:25;98711.53;;;1.62;100.00
9474;BME280;8865;47.636;7.692;2023-01-28T04:13:51;98703.94;;;1.59;100.00
9474;BME280;8865;47.636;7.692;2023-01-28T04:16:18;98706.50;;;1.59;100.00
9474;BME280;8865;47.636;7.692;2023-01-28T04:18:45;98715.03;;;1.61;100.00
9474;BME280;8865;47.636;7.692;2023-01-28T04:21:11;98707.22;;;1.63;100.00
9474;BME280;8865;47.636;7.692;2023-01-28T04:23:37;98707.16;;;1.64;100.00
9474;BME280;8865;47.636;7.692;2023-01-28T04:26:03;98713.16;;;1.65;100.00
9474;BME280;8865;47.636;7.692;2023-01-28T04:28:29;98712.31;;;1.64;100.00
9474;BME280;8865;47.636;7.692;2023-01-28T04:30:55;98723.56;;;1.63;100.00
9474;BME280;8865;47.636;7.692;2023-01-28T04:33:22;98724.31;;;1.65;100.00
9474;BME280;8865;47.636;7.692;2023-01-28T04:35:48;98726.91;;;1.65;100.00
9474;BME280;8865;47.636;7.692;2023-01-28T04:38:14;98711.47;;;1.64;100.00
9474;BME280;8865;47.636;7.692;2023-01-28T04:40:40;98717.72;;;1.58;100.00
9474;BME280;8865;47.636;7.692;2023-01-28T04:43:06;98720.44;;;1.55;100.00
9474;BME280;8865;47.636;7.692;2023-01-28T04:45:31;98725.72;;;1.52;100.00
9474;BME280;8865;47.636;7.692;2023-01-28T04:47:57;98724.78;;;1.54;100.00
9474;BME280;8865;47.636;7.692;2023-01-28T04:50:23;98729.88;;;1.56;100.00
9474;BME280;8865;47.636;7.692;2023-01-28T04:52:49;98723.03;;;1.55;100.00
9474;BME280;8865;47.636;7.692;2023-01-28T04:55:15;98729.94;;;1.54;100.00
9474;BME280;8865;47.636;7.692;2023-01-28T04:57:41;98724.84;;;1.53;100.00
9474;BME280;8865;47.636;7.692;2023-01-28T05:00:08;98730.91;;;1.52;100.00
9474;BME280;8865;47.636;7.692;2023-01-28T05:02:34;98742.16;;;1.51;100.00
9474;BME280;8865;47.636;7.692;2023-01-28T05:05:00;98738.69;;;1.50;100.00
9474;BME280;8865;47.636;7.692;2023-01-28T05:07:29;98743.88;;;1.50;100.00
9474;BME280;8865;47.636;7.692;2023-01-28T05:09:55;98736.19;;;1.49;100.00
9474;BME280;8865;47.636;7.692;2023-01-28T05:12:21;98742.34;;;1.46;100.00
9474;BME280;8865;47.636;7.692;2023-01-28T05:14:47;98735.53;;;1.43;100.00
9474;BME280;8865;47.636;7.692;2023-01-28T05:17:13;98744.97;;;1.45;100.00
9474;BME280;8865;47.636;7.692;2023-01-28T05:19:39;98747.56;;;1.45;100.00
9474;BME280;8865;47.636;7.692;2023-01-28T05:22:05;98749.22;;;1.46;100.00
9474;BME280;8865;47.636;7.692;2023-01-28T05:24:31;98750.00;;;1.48;100.00
9474;BME280;8865;47.636;7.692;2023-01-28T05:26:57;98746.50;;;1.49;100.00
9474;BME280;8865;47.636;7.692;2023-01-28T05:29:23;98748.31;;;1.47;100.00
9474;BME280;8865;47.636;7.692;2023-01-28T05:31:49;98756.91;;;1.47;100.00
9474;BME280;8865;47.636;7.692;2023-01-28T05:34:15;98753.75;;;1.40;100.00
9474;BME280;8865;47.636;7.692;2023-01-28T05:36:41;98743.41;;;1.40;100.00
9474;BME280;8865;47.636;7.692;2023-01-28T05:39:07;98747.56;;;1.45;100.00
9474;BME280;8865;47.636;7.692;2023-01-28T05:41:33;98751.59;;;1.50;100.00
9474;BME280;8865;47.636;7.692;2023-01-28T05:43:59;98755.13;;;1.49;100.00
9474;BME280;8865;47.636;7.692;2023-01-28T05:46:26;98756.78;;;1.50;100.00
9474;BME280;8865;47.636;7.692;2023-01-28T05:48:52;98755.88;;;1.51;100.00
9474;BME280;8865;47.636;7.692;2023-01-28T05:51:18;98760.97;;;1.53;100.00
9474;BME280;8865;47.636;7.692;2023-01-28T05:53:44;98756.59;;;1.55;100.00
9474;BME280;8865;47.636;7.692;2023-01-28T05:56:10;98759.97;;;1.57;100.00
9474;BME280;8865;47.636;7.692;2023-01-28T05:58:36;98758.22;;;1.57;100.00
9474;BME280;8865;47.636;7.692;2023-01-28T06:01:02;98753.09;;;1.56;100.00
9474;BME280;8865;47.636;7.692;2023-01-28T06:03:28;98747.94;;;1.56;100.00
9474;BME280;8865;47.636;7.692;2023-01-28T06:05:54;98754.94;;;1.54;100.00
9474;BME280;8865;47.636;7.692;2023-01-28T06:08:20;98761.94;;;1.50;100.00
9474;BME280;8865;47.636;7.692;2023-01-28T06:10:46;98771.38;;;1.51;100.00
9474;BME280;8865;47.636;7.692;2023-01-28T06:13:12;98768.66;;;1.54;100.00
9474;BME280;8865;47.636;7.692;2023-01-28T06:15:38;98769.50;;;1.55;100.00
9474;BME280;8865;47.636;7.692;2023-01-28T06:18:04;98773.88;;;1.53;100.00
9474;BME280;8865;47.636;7.692;2023-01-28T06:20:30;98773.75;;;1.56;100.00
9474;BME280;8865;47.636;7.692;2023-01-28T06:22:56;98773.75;;;1.56;100.00
9474;BME280;8865;47.636;7.692;2023-01-28T06:25:22;98777.09;;;1.58;100.00
9474;BME280;8865;47.636;7.692;2023-01-28T06:27:48;98776.22;;;1.59;100.00
9474;BME280;8865;47.636;7.692;2023-01-28T06:30:14;98772.88;;;1.57;100.00
9474;BME280;8865;47.636;7.692;2023-01-28T06:32:40;98768.59;;;1.56;100.00
9474;BME280;8865;47.636;7.692;2023-01-28T06:35:06;98784.09;;;1.56;100.00
9474;BME280;8865;47.636;7.692;2023-01-28T06:37:33;98791.84;;;1.56;100.00
9474;BME280;8865;47.636;7.692;2023-01-28T06:39:59;98789.25;;;1.56;100.00
9474;BME280;8865;47.636;7.692;2023-01-28T06:42:25;98794.91;;;1.43;100.00
9474;BME280;8865;47.636;7.692;2023-01-28T06:44:51;98804.91;;;1.31;100.00
9474;BME280;8865;47.636;7.692;2023-01-28T06:47:17;98808.94;;;1.36;100.00
9474;BME280;8865;47.636;7.692;2023-01-28T06:49:43;98798.44;;;1.41;100.00
9474;BME280;8865;47.636;7.692;2023-01-28T06:52:09;98801.75;;;1.45;100.00
9474;BME280;8865;47.636;7.692;2023-01-28T06:54:35;98801.41;;;1.54;100.00
9474;BME280;8865;47.636;7.692;2023-01-28T06:57:01;98792.59;;;1.58;100.00
9474;BME280;8865;47.636;7.692;2023-01-28T06:59:27;98802.81;;;1.61;100.00
9474;BME280;8865;47.636;7.692;2023-01-28T07:01:53;98806.69;;;1.51;100.00
9474;BME280;8865;47.636;7.692;2023-01-28T07:04:19;98809.84;;;1.57;100.00
9474;BME280;8865;47.636;7.692;2023-01-28T07:06:45;98809.66;;;1.62;100.00
9474;BME280;8865;47.636;7.692;2023-01-28T07:09:11;98798.38;;;1.65;100.00
9474;BME280;8865;47.636;7.692;2023-01-28T07:11:37;98817.97;;;1.69;100.00
9474;BME280;8865;47.636;7.692;2023-01-28T07:14:03;98815.28;;;1.72;100.00
9474;BME280;8865;47.636;7.692;2023-01-28T07:16:30;98809.28;;;1.71;100.00
9474;BME280;8865;47.636;7.692;2023-01-28T07:18:56;98810.84;;;1.75;100.00
9474;BME280;8865;47.636;7.692;2023-01-28T07:21:22;98820.19;;;1.78;100.00
9474;BME280;8865;47.636;7.692;2023-01-28T07:23:48;98815.09;;;1.76;100.00
9474;BME280;8865;47.636;7.692;2023-01-28T07:26:14;98834.03;;;1.77;100.00
9474;BME280;8865;47.636;7.692;2023-01-28T07:28:44;98821.06;;;1.78;100.00
9474;BME280;8865;47.636;7.692;2023-01-28T07:31:10;98826.22;;;1.78;100.00
9474;BME280;8865;47.636;7.692;2023-01-28T07:33:36;98826.09;;;1.82;100.00
9474;BME280;8865;47.636;7.692;2023-01-28T07:36:03;98831.19;;;1.83;100.00
9474;BME280;8865;47.636;7.692;2023-01-28T07:38:29;98835.44;;;1.84;100.00
9474;BME280;8865;47.636;7.692;2023-01-28T07:40:55;98825.84;;;1.88;100.00
9474;BME280;8865;47.636;7.692;2023-01-28T07:43:21;98829.25;;;1.88;100.00
9474;BME280;8865;47.636;7.692;2023-01-28T07:45:47;98830.94;;;1.89;100.00
9474;BME280;8865;47.636;7.692;2023-01-28T07:48:14;98835.13;;;1.92;100.00
9474;BME280;8865;47.636;7.692;2023-01-28T07:50:40;98828.94;;;1.96;100.00
9474;BME280;8865;47.636;7.692;2023-01-28T07:53:09;98829.63;;;2.00;100.00
9474;BME280;8865;47.636;7.692;2023-01-28T07:55:37;98824.47;;;2.00;100.00
9474;BME280;8865;47.636;7.692;2023-01-28T07:58:05;98832.41;;;1.95;100.00
9474;BME280;8865;47.636;7.692;2023-01-28T08:00:33;98835.06;;;1.93;100.00
9474;BME280;8865;47.636;7.692;2023-01-28T08:03:02;98836.69;;;1.96;100.00
9474;BME280;8865;47.636;7.692;2023-01-28T08:05:38;98839.06;;;2.01;100.00
9474;BME280;8865;47.636;7.692;2023-01-28T08:08:07;98839.91;;;2.01;100.00
9474;BME280;8865;47.636;7.692;2023-01-28T08:10:33;98851.16;;;2.00;100.00
9474;BME280;8865;47.636;7.692;2023-01-28T08:12:59;98851.97;;;2.01;100.00
9474;BME280;8865;47.636;7.692;2023-01-28T08:15:26;98848.31;;;2.06;100.00
9474;BME280;8865;47.636;7.692;2023-01-28T08:17:54;98857.66;;;2.09;100.00
9474;BME280;8865;47.636;7.692;2023-01-28T08:20:21;98854.97;;;2.12;100.00
9474;BME280;8865;47.636;7.692;2023-01-28T08:22:47;98862.53;;;2.17;100.00
9474;BME280;8865;47.636;7.692;2023-01-28T08:25:13;98858.84;;;2.22;100.00
9474;BME280;8865;47.636;7.692;2023-01-28T08:27:39;98857.94;;;2.23;100.00
9474;BME280;8865;47.636;7.692;2023-01-28T08:30:05;98863.88;;;2.25;100.00
9474;BME280;8865;47.636;7.692;2023-01-28T08:32:32;98867.31;;;2.26;100.00
9474;BME280;8865;47.636;7.692;2023-01-28T08:34:58;98873.25;;;2.28;100.00
9474;BME280;8865;47.636;7.692;2023-01-28T08:37:24;98876.66;;;2.28;100.00
9474;BME280;8865;47.636;7.692;2023-01-28T08:39:50;98875.84;;;2.28;100.00
9474;BME280;8865;47.636;7.692;2023-01-28T08:42:16;98873.94;;;2.31;100.00
9474;BME280;8865;47.636;7.692;2023-01-28T08:44:42;98879.84;;;2.35;100.00
9474;BME280;8865;47.636;7.692;2023-01-28T08:47:08;98884.97;;;2.37;100.00
9474;BME280;8865;47.636;7.692;2023-01-28T08:49:34;98886.41;;;2.42;100.00
9474;BME280;8865;47.636;7.692;2023-01-28T08:52:00;98880.97;;;2.48;100.00
9474;BME280;8865;47.636;7.692;2023-01-28T08:54:26;98881.19;;;2.44;100.00
9474;BME280;8865;47.636;7.692;2023-01-28T08:56:52;98888.81;;;2.47;100.00
9474;BME280;8865;47.636;7.692;2023-01-28T08:59:18;98887.22;;;2.44;100.00
9474;BME280;8865;47.636;7.692;2023-01-28T09:01:44;98887.22;;;2.44;100.00
9474;BME280;8865;47.636;7.692;2023-01-28T09:04:10;98889.09;;;2.20;100.00
9474;BME280;8865;47.636;7.692;2023-01-28T09:06:36;98895.88;;;2.43;100.00
9474;BME280;8865;47.636;7.692;2023-01-28T09:09:02;98890.22;;;2.54;100.00
9474;BME280;8865;47.636;7.692;2023-01-28T09:11:29;98891.78;;;2.58;100.00
9474;BME280;8865;47.636;7.692;2023-01-28T09:13:57;98893.25;;;2.64;100.00
9474;BME280;8865;47.636;7.692;2023-01-28T09:16:23;98893.91;;;2.69;100.00
9474;BME280;8865;47.636;7.692;2023-01-28T09:18:50;98898.94;;;2.72;100.00
9474;BME280;8865;47.636;7.692;2023-01-28T09:21:16;98900.47;;;2.76;100.00
9474;BME280;8865;47.636;7.692;2023-01-28T09:23:42;98902.09;;;2.79;100.00
9474;BME280;8865;47.636;7.692;2023-01-28T09:26:09;98904.41;;;2.85;100.00
9474;BME280;8865;47.636;7.692;2023-01-28T09:28:35;98899.78;;;2.92;100.00
9474;BME280;8865;47.636;7.692;2023-01-28T09:31:05;98902.25;;;2.95;100.00
9474;BME280;8865;47.636;7.692;2023-01-28T09:33:31;98909.59;;;2.85;100.00
9474;BME280;8865;47.636;7.692;2023-01-28T09:36:02;98903.94;;;2.96;100.00
9474;BME280;8865;47.636;7.692;2023-01-28T09:38:29;98904.50;;;3.02;100.00
9474;BME280;8865;47.636;7.692;2023-01-28T09:40:56;98916.44;;;2.86;100.00
9474;BME280;8865;47.636;7.692;2023-01-28T09:46:04;98906.72;;;3.10;100.00
9474;BME280;8865;47.636;7.692;2023-01-28T09:48:40;98907.09;;;3.21;100.00
9474;BME280;8865;47.636;7.692;2023-01-28T09:51:12;98906.63;;;3.32;100.00
9474;BME280;8865;47.636;7.692;2023-01-28T09:53:47;98906.81;;;3.28;100.00
9474;BME280;8865;47.636;7.692;2023-01-28T09:56:30;98898.78;;;3.34;100.00
9474;BME280;8865;47.636;7.692;2023-01-28T10:02:02;98899.09;;;3.45;100.00
9474;BME280;8865;47.636;7.692;2023-01-28T10:04:57;98906.72;;;3.48;100.00
9474;BME280;8865;47.636;7.692;2023-01-28T10:07:33;98899.75;;;3.50;100.00
9474;BME280;8865;47.636;7.692;2023-01-28T10:10:10;98899.53;;;3.55;100.00
9474;BME280;8865;47.636;7.692;2023-01-28T10:18:10;98898.97;;;3.67;100.00
9474;BME280;8865;47.636;7.692;2023-01-28T10:20:43;98900.84;;;3.64;100.00
9474;BME280;8865;47.636;7.692;2023-01-28T10:23:36;98900.75;;;3.65;100.00
9474;BME280;8865;47.636;7.692;2023-01-28T10:26:15;98904.44;;;3.61;100.00
9474;BME280;8865;47.636;7.692;2023-01-28T10:28:41;98907.63;;;3.66;100.00
9474;BME280;8865;47.636;7.692;2023-01-28T10:31:11;98904.81;;;3.71;100.00
9474;BME280;8865;47.636;7.692;2023-01-28T10:33:37;98905.88;;;3.67;100.00
9474;BME280;8865;47.636;7.692;2023-01-28T10:36:05;98904.06;;;3.69;100.00
9474;BME280;8865;47.636;7.692;2023-01-28T10:38:32;98896.28;;;3.69;100.00
9474;BME280;8865;47.636;7.692;2023-01-28T10:41:04;98898.44;;;3.78;100.00
9474;BME280;8865;47.636;7.692;2023-01-28T10:43:36;98895.41;;;3.87;100.00
9474;BME280;8865;47.636;7.692;2023-01-28T10:46:29;98891.13;;;4.04;100.00
9474;BME280;8865;47.636;7.692;2023-01-28T10:49:03;98886.13;;;4.18;100.00
9474;BME280;8865;47.636;7.692;2023-01-28T10:51:40;98891.75;;;4.26;100.00
9474;BME280;8865;47.636;7.692;2023-01-28T10:54:23;98888.03;;;4.32;100.00
9474;BME280;8865;47.636;7.692;2023-01-28T10:56:53;98887.34;;;4.28;100.00
9474;BME280;8865;47.636;7.692;2023-01-28T10:59:28;98878.47;;;4.33;100.00
9474;BME280;8865;47.636;7.692;2023-01-28T11:02:21;98885.31;;;4.51;100.00
9474;BME280;8865;47.636;7.692;2023-01-28T11:05:21;98883.28;;;4.58;100.00
9474;BME280;8865;47.636;7.692;2023-01-28T11:08:02;98879.16;;;4.54;100.00
9474;BME280;8865;47.636;7.692;2023-01-28T11:10:30;98866.25;;;4.52;100.00
9474;BME280;8865;47.636;7.692;2023-01-28T11:12:59;98867.09;;;4.53;100.00
9474;BME280;8865;47.636;7.692;2023-01-28T11:15:25;98867.47;;;4.62;100.00
9474;BME280;8865;47.636;7.692;2023-01-28T11:18:16;98868.06;;;4.68;100.00
9474;BME280;8865;47.636;7.692;2023-01-28T11:20:50;98867.06;;;4.70;100.00
9474;BME280;8865;47.636;7.692;2023-01-28T11:23:31;98867.00;;;4.72;100.00
9474;BME280;8865;47.636;7.692;2023-01-28T11:26:08;98874.94;;;4.69;100.00
9474;BME280;8865;47.636;7.692;2023-01-28T11:28:40;98870.88;;;4.63;100.00
9474;BME280;8865;47.636;7.692;2023-01-28T11:31:09;98870.53;;;4.53;100.00
9474;BME280;8865;47.636;7.692;2023-01-28T11:33:41;98867.56;;;4.43;100.00
9474;BME280;8865;47.636;7.692;2023-01-28T11:36:21;98872.75;;;4.43;100.00
9474;BME280;8865;47.636;7.692;2023-01-28T11:38:52;98870.22;;;4.42;100.00
9474;BME280;8865;47.636;7.692;2023-01-28T11:41:24;98861.84;;;4.37;98.99
9474;BME280;8865;47.636;7.692;2023-01-28T11:43:52;98871.09;;;4.42;100.00
9474;BME280;8865;47.636;7.692;2023-01-28T11:52:13;98870.22;;;4.42;95.39
9474;BME280;8865;47.636;7.692;2023-01-28T12:02:52;98871.91;;;4.43;99.55
9474;BME280;8865;47.636;7.692;2023-01-28T12:08:31;98861.97;;;4.51;98.50
9474;BME280;8865;47.636;7.692;2023-01-28T12:14:21;98872.59;;;4.46;91.18
9474;BME280;8865;47.636;7.692;2023-01-28T12:30:42;98861.84;;;4.19;92.01
9474;BME280;8865;47.636;7.692;2023-01-28T12:36:07;98869.75;;;4.51;87.21
9474;BME280;8865;47.636;7.692;2023-01-28T12:38:47;98865.50;;;4.50;86.51
9474;BME280;8865;47.636;7.692;2023-01-28T12:41:21;98863.94;;;4.63;88.77
9474;BME280;8865;47.636;7.692;2023-01-28T12:43:56;98866.22;;;4.70;89.75
9474;BME280;8865;47.636;7.692;2023-01-28T12:51:53;98860.28;;;4.83;88.56
9474;BME280;8865;47.636;7.692;2023-01-28T12:54:35;98859.22;;;4.88;89.28
9474;BME280;8865;47.636;7.692;2023-01-28T12:57:07;98860.75;;;4.92;88.13
9474;BME280;8865;47.636;7.692;2023-01-28T12:59:41;98864.91;;;4.94;87.32
9474;BME280;8865;47.636;7.692;2023-01-28T13:04:53;98864.56;;;4.85;87.80
9474;BME280;8865;47.636;7.692;2023-01-28T13:10:27;98863.38;;;4.74;89.01
9474;BME280;8865;47.636;7.692;2023-01-28T13:12:55;98863.69;;;4.68;90.27
9474;BME280;8865;47.636;7.692;2023-01-28T13:15:22;98872.66;;;4.62;89.40
9474;BME280;8865;47.636;7.692;2023-01-28T13:18:00;98874.03;;;4.52;91.02
9474;BME280;8865;47.636;7.692;2023-01-28T13:20:45;98872.81;;;4.42;92.83
9474;BME280;8865;47.636;7.692;2023-01-28T13:23:45;98886.28;;;4.15;95.35
9474;BME280;8865;47.636;7.692;2023-01-28T13:28:47;98884.75;;;4.11;98.09
9474;BME280;8865;47.636;7.692;2023-01-28T13:31:16;98891.84;;;4.07;98.62
9474;BME280;8865;47.636;7.692;2023-01-28T13:34:00;98880.25;;;3.97;99.23
9474;BME280;8865;47.636;7.692;2023-01-28T13:44:27;98899.50;;;3.91;100.00
9474;BME280;8865;47.636;7.692;2023-01-28T13:47:13;98902.53;;;3.82;100.00
9474;BME280;8865;47.636;7.692;2023-01-28T13:49:46;98901.94;;;3.94;100.00
9474;BME280;8865;47.636;7.692;2023-01-28T13:52:16;98895.47;;;3.86;100.00
9474;BME280;8865;47.636;7.692;2023-01-28T13:54:54;98901.13;;;3.94;100.00
9474;BME280;8865;47.636;7.692;2023-01-28T14:09:34;98902.34;;;3.50;100.00
9474;BME280;8865;47.636;7.692;2023-01-28T14:12:29;98903.38;;;3.46;100.00
9474;BME280;8865;47.636;7.692;2023-01-28T14:20:17;98912.63;;;3.52;100.00
9474;BME280;8865;47.636;7.692;2023-01-28T14:22:43;98906.81;;;3.47;100.00
9474;BME280;8865;47.636;7.692;2023-01-28T14:25:14;98912.91;;;3.46;100.00
9474;BME280;8865;47.636;7.692;2023-01-28T14:27:45;98913.53;;;3.51;100.00
9474;BME280;8865;47.636;7.692;2023-01-28T14:30:21;98919.41;;;3.54;100.00
9474;BME280;8865;47.636;7.692;2023-01-28T14:32:53;98916.94;;;3.51;100.00
9474;BME280;8865;47.636;7.692;2023-01-28T14:35:33;98924.78;;;3.50;100.00
9474;BME280;8865;47.636;7.692;2023-01-28T14:38:06;98926.84;;;3.43;100.00
9474;BME280;8865;47.636;7.692;2023-01-28T14:40:37;98928.84;;;3.55;100.00
9474;BME280;8865;47.636;7.692;2023-01-28T14:43:06;98935.88;;;3.53;100.00
9474;BME280;8865;47.636;7.692;2023-01-28T14:48:43;98944.59;;;3.51;100.00
9474;BME280;8865;47.636;7.692;2023-01-28T14:57:36;98948.59;;;3.58;100.00
9474;BME280;8865;47.636;7.692;2023-01-28T15:00:17;98948.16;;;3.48;100.00
9474;BME280;8865;47.636;7.692;2023-01-28T15:02:44;98947.19;;;3.51;100.00
9474;BME280;8865;47.636;7.692;2023-01-28T15:05:16;98945.28;;;3.54;100.00
9474;BME280;8865;47.636;7.692;2023-01-28T15:07:44;98960.50;;;3.43;100.00
9474;BME280;8865;47.636;7.692;2023-01-28T15:10:20;98958.31;;;3.53;100.00
9474;BME280;8865;47.636;7.692;2023-01-28T15:12:58;98957.28;;;3.57;100.00
9474;BME280;8865;47.636;7.692;2023-01-28T15:15:31;98957.81;;;3.64;100.00
9474;BME280;8865;47.636;7.692;2023-01-28T15:18:20;98960.28;;;3.67;100.00
9474;BME280;8865;47.636;7.692;2023-01-28T15:20:52;98973.38;;;3.45;100.00
9474;BME280;8865;47.636;7.692;2023-01-28T15:23:40;98971.91;;;3.39;100.00
9474;BME280;8865;47.636;7.692;2023-01-28T15:26:11;98968.00;;;3.30;100.00
9474;BME280;8865;47.636;7.692;2023-01-28T15:28:39;98979.13;;;3.32;100.00
9474;BME280;8865;47.636;7.692;2023-01-28T15:31:18;98987.22;;;3.25;100.00
9474;BME280;8865;47.636;7.692;2023-01-28T15:33:45;98985.81;;;3.17;100.00
9474;BME280;8865;47.636;7.692;2023-01-28T15:36:11;98987.38;;;3.01;100.00